Latest Weather Observations for Jacup

IDW60801

Issued at 11:35 pm WST Tuesday 22 July 2014 (issued every 30 minutes, with the page automatically refreshed every 10 minutes)

About weather observations | Map of weather stations | Latest weather observations for WA | Other Formats
Station Details ID: 010905 Name: JACUP Lat: -33.89 Lon: 119.11 Height: 305.0 m
Data from the previous 72 hours. | See also: Recent months at Jacup
Date/Time
WST
Temp
°C
App
Temp
°C
Dew
Point
Rel
Hum
%
Delta-T
°C
Wind Press
QNH
hPa
Press
MSL
hPa
Rain
since 9 am
mm
Dir
 
Spd
km/h
Gust
km/h
Spd
kts
Gust
kts
22/11:30pm 7.3 4.1 6.9 97 0.2 W 13 19 7 10 1017.0 - 0.0
22/11:00pm 7.2 3.6 6.8 97 0.2 W 15 22 8 12 1017.0 1017.2 0.0
22/10:30pm 7.1 3.5 6.7 97 0.2 W 15 26 8 14 1016.7 - 0.0
22/10:00pm 7.1 3.8 6.5 96 0.3 W 13 19 7 10 1016.5 1016.7 0.0
22/09:30pm 7.4 3.8 6.7 95 0.3 W 15 20 8 11 1016.4 - 0.0
22/09:00pm 7.9 4.0 7.0 94 0.4 W 17 20 9 11 1016.2 1016.4 0.0
22/08:30pm 7.8 4.2 6.7 93 0.5 W 15 20 8 11 1015.9 - 0.0
22/08:00pm 8.1 4.5 6.9 92 0.6 W 15 19 8 10 1015.6 1015.8 0.0
22/07:30pm 8.5 5.0 7.0 90 0.7 W 15 22 8 12 1015.4 - 0.0
22/07:00pm 8.9 5.7 7.0 88 0.9 W 13 20 7 11 1015.0 1015.1 0.0
22/06:30pm 8.9 5.3 6.7 86 1.0 W 15 20 8 11 1014.6 - 0.0
22/06:00pm 9.5 5.9 6.9 84 1.2 W 15 20 8 11 1014.2 1014.3 0.0
22/05:30pm 10.2 6.3 7.1 81 1.5 W 17 28 9 15 1013.6 - 0.0
22/05:00pm 11.3 7.0 7.0 75 2.1 W 19 26 10 14 1013.2 1013.4 0.0
22/04:30pm 12.3 7.5 7.2 71 2.5 W 22 35 12 19 1012.8 - 0.0
22/04:00pm 13.2 6.8 6.8 65 3.1 W 30 48 16 26 1012.4 1012.5 0.0
22/03:47pm 13.6 7.5 6.7 63 3.4 W 28 46 15 25 1012.2 - 0.0
22/03:30pm 13.7 8.3 6.3 61 3.6 W 24 37 13 20 1012.0 - 0.0
22/03:00pm 14.1 8.4 6.5 60 3.7 W 26 39 14 21 1011.8 1011.9 0.0
22/02:30pm 13.3 7.9 6.4 63 3.4 WSW 24 37 13 20 1011.7 - 0.0
22/02:00pm 13.4 8.5 6.7 64 3.3 W 22 37 12 20 1011.6 1011.7 0.0
22/01:30pm 13.8 8.1 6.9 63 3.4 W 26 41 14 22 1011.3 - 0.0
22/01:00pm 13.6 8.5 7.6 67 3.0 W 24 35 13 19 1011.5 1011.6 0.0
22/12:30pm 12.8 7.8 8.1 73 2.4 W 24 37 13 20 1011.8 - 0.0
22/12:00pm 11.5 5.8 8.2 80 1.6 W 28 39 15 21 1012.1 1012.2 0.0
22/11:30am 12.0 7.4 8.3 78 1.9 W 22 32 12 17 1012.4 - 0.0
22/11:00am 10.5 6.3 8.1 85 1.2 W 20 32 11 17 1012.8 1012.9 0.0
22/10:30am 10.0 5.7 7.9 87 1.0 W 20 28 11 15 1012.8 - 0.0
22/10:00am 9.1 5.0 7.9 92 0.6 W 19 26 10 14 1013.1 1013.3 0.0
22/09:30am 8.9 5.2 8.1 95 0.4 W 17 24 9 13 1013.0 - 0.0
22/09:00am 8.5 4.8 8.1 97 0.2 W 17 26 9 14 1012.9 1013.1 3.8
22/08:30am 8.1 6.2 7.7 97 0.2 WNW 7 11 4 6 1012.3 - 3.8
22/08:00am 7.8 5.5 7.4 97 0.2 WNW 9 13 5 7 1012.1 1012.2 3.8
22/07:30am 7.5 5.1 7.1 97 0.2 W 9 13 5 7 1011.9 - 3.8
22/07:00am 7.1 4.9 6.4 95 0.3 WSW 7 9 4 5 1011.5 1011.6 3.6
22/06:30am 8.0 5.6 7.2 95 0.4 WSW 9 11 5 6 1011.5 - 3.6
22/06:00am 8.3 6.4 7.5 95 0.4 NW 7 9 4 5 1011.5 1011.6 3.6
22/05:30am 8.6 5.2 7.8 95 0.4 NW 15 22 8 12 1011.6 - 3.2
22/05:00am 8.7 5.4 8.1 96 0.3 NW 15 24 8 13 1011.7 1011.8 1.2
22/04:30am 8.4 6.1 7.3 93 0.5 WNW 9 11 5 6 1011.5 - 0.2
22/04:00am 8.9 4.6 7.0 88 0.9 NW 19 26 10 14 1011.9 1012.0 0.0
22/03:30am 9.1 5.9 6.9 86 1.0 N 13 17 7 9 1011.4 - 0.0
22/03:00am 9.3 5.7 6.7 84 1.2 N 15 20 8 11 1011.7 1011.8 0.0
22/02:30am 9.4 6.3 7.3 87 1.0 N 13 17 7 9 1011.9 - 0.0
22/02:00am 9.5 6.4 7.4 87 1.0 N 13 17 7 9 1011.9 1012.0 0.0
22/01:30am 9.4 6.4 7.7 89 0.8 N 13 17 7 9 1012.2 - 0.0
22/01:00am 9.1 6.1 7.7 91 0.7 N 13 17 7 9 1012.3 1012.4 0.0
22/12:30am 8.6 5.9 7.4 92 0.6 N 11 13 6 7 1012.5 - 0.0
22/12:00am 9.4 6.9 8.0 91 0.7 N 11 13 6 7 1012.9 1013.1 0.0
 
Date/Time
WST
Temp
°C
App
Temp
°C
Dew
Point
Rel
Hum
%
Delta-T
°C
Wind Press
QNH
hPa
Press
MSL
hPa
Rain
since 9 am
mm
Dir
 
Spd
km/h
Gust
km/h
Spd
kts
Gust
kts
21/11:30pm 9.8 7.3 8.1 89 0.8 N 11 15 6 8 1013.2 - 0.0
21/11:00pm 9.8 6.9 8.1 89 0.8 N 13 15 7 8 1013.5 1013.7 0.0
21/10:30pm 10.2 7.0 8.3 88 0.9 N 15 19 8 10 1013.5 - 0.0
21/10:00pm 10.0 6.7 8.1 88 0.9 N 15 20 8 11 1013.7 1013.9 0.0
21/09:30pm 9.9 6.5 7.8 87 1.0 N 15 20 8 11 1014.1 - 0.0
21/09:00pm 9.7 5.9 7.6 87 1.0 N 17 22 9 12 1014.1 1014.2 0.0
21/08:30pm 9.8 6.0 7.7 87 1.0 N 17 20 9 11 1013.9 - 0.0
21/08:00pm 9.9 6.6 8.0 88 0.9 N 15 20 8 11 1013.9 1014.1 0.0
21/07:30pm 9.6 6.2 7.7 88 0.9 N 15 20 8 11 1013.9 - 0.0
21/07:00pm 10.0 6.3 7.8 86 1.1 N 17 26 9 14 1013.9 1014.1 0.0
21/06:30pm 9.3 6.2 7.4 88 0.9 N 13 17 7 9 1013.8 - 0.0
21/06:00pm 10.3 7.2 7.2 81 1.5 N 13 19 7 10 1013.9 1014.1 0.0
21/05:30pm 11.4 7.9 7.1 75 2.1 NNW 15 20 8 11 1013.8 - 0.0
21/05:00pm 12.4 9.4 7.9 74 2.2 NNW 13 22 7 12 1013.9 1014.1 0.0
21/04:30pm 13.6 10.0 8.4 71 2.6 NNW 17 24 9 13 1013.9 - 0.0
21/04:00pm 14.4 11.3 8.8 69 2.9 NNW 15 24 8 13 1013.7 1013.9 0.0
21/03:30pm 14.5 11.0 8.9 69 2.9 NNW 17 26 9 14 1013.6 - 0.0
21/03:00pm 14.7 11.7 9.3 70 2.8 NW 15 20 8 11 1013.6 1013.8 0.0
21/02:30pm 15.0 11.1 8.5 65 3.3 NW 19 30 10 16 1013.7 - 0.0
21/02:00pm 14.3 10.4 8.7 69 2.9 NW 19 26 10 14 1013.9 1014.1 0.0
21/01:30pm 14.6 10.8 9.0 69 2.9 WNW 19 30 10 16 1014.3 - 0.0
21/01:00pm 15.2 11.7 10.2 72 2.7 WNW 19 28 10 15 1014.6 1014.7 0.0
21/12:30pm 15.1 11.3 9.2 68 3.1 NW 19 28 10 15 1014.9 - 0.0
21/12:00pm 13.9 9.9 9.1 73 2.5 NW 20 30 11 16 1015.2 1015.3 0.0
21/11:30am 13.8 10.6 9.8 77 2.1 NW 17 26 9 14 1015.9 - 0.0
21/11:00am 11.8 8.5 9.4 85 1.2 NNW 17 26 9 14 1016.4 1016.6 0.0
21/10:30am 10.8 8.2 9.2 90 0.8 NW 13 19 7 10 1016.5 - 0.0
21/10:00am 9.6 6.8 8.5 93 0.5 NNW 13 17 7 9 1016.6 1016.8 0.0
21/09:30am 8.6 5.7 8.2 97 0.2 NW 13 19 7 10 1016.6 - 0.0
21/09:00am 7.7 4.6 7.3 97 0.2 WNW 13 20 7 11 1016.5 1016.7 0.2
21/08:30am 6.9 2.8 6.3 96 0.3 WNW 17 22 9 12 1016.4 - 0.2
21/08:00am 7.2 3.9 6.6 96 0.3 WNW 13 20 7 11 1016.2 1016.4 0.2
21/07:30am 6.7 3.4 6.3 97 0.2 NW 13 17 7 9 1015.9 - 0.2
21/07:00am 6.8 3.9 6.5 98 0.1 WNW 11 15 6 8 1015.7 1015.9 0.2
21/06:30am 6.4 3.0 6.0 97 0.2 NW 13 17 7 9 1015.5 - 0.2
21/06:00am 6.3 2.9 5.9 97 0.2 WNW 13 19 7 10 1015.2 1015.3 0.2
21/05:30am 6.6 2.9 6.2 97 0.2 WNW 15 20 8 11 1015.0 - 0.2
21/05:00am 6.4 2.6 6.0 97 0.2 WNW 15 20 8 11 1014.6 1014.7 0.2
21/04:30am 6.2 2.8 5.8 97 0.2 WNW 13 17 7 9 1014.6 - 0.2
21/04:00am 6.2 2.8 5.8 97 0.2 WNW 13 17 7 9 1014.8 1014.9 0.2
21/03:30am 6.4 3.0 6.0 97 0.2 WNW 13 19 7 10 1014.6 - 0.2
21/03:00am 6.1 3.0 5.5 96 0.3 WNW 11 17 6 9 1014.6 1014.7 0.2
21/02:30am 6.2 2.7 5.6 96 0.3 WNW 13 15 7 8 1014.5 - 0.2
21/02:00am 6.3 2.9 5.7 96 0.3 NW 13 17 7 9 1014.6 1014.7 0.0
21/01:30am 6.3 3.2 5.7 96 0.3 NW 11 13 6 7 1014.5 - 0.0
21/01:00am 6.4 3.4 5.8 96 0.3 NW 11 13 6 7 1014.6 1014.7 0.0
21/12:30am 6.8 3.5 6.2 96 0.3 WNW 13 15 7 8 1014.9 - 0.0
21/12:00am 7.0 3.7 6.4 96 0.3 WNW 13 17 7 9 1014.8 1014.9 0.0
 
Date/Time
WST
Temp
°C
App
Temp
°C
Dew
Point
Rel
Hum
%
Delta-T
°C
Wind Press
QNH
hPa
Press
MSL
hPa
Rain
since 9 am
mm
Dir
 
Spd
km/h
Gust
km/h
Spd
kts
Gust
kts
20/11:30pm 6.9 3.6 6.2 95 0.3 WNW 13 15 7 8 1014.9 - 0.0
20/11:00pm 7.4 4.2 6.7 95 0.3 NW 13 15 7 8 1015.2 1015.3 0.0
20/10:30pm 7.1 4.2 6.4 95 0.3 WNW 11 13 6 7 1015.0 - 0.0
20/10:00pm 7.4 4.5 6.7 95 0.3 WNW 11 13 6 7 1015.3 1015.4 0.0
20/09:30pm 7.4 4.6 6.8 96 0.3 WNW 11 13 6 7 1015.3 - 0.0
20/09:00pm 7.2 4.7 6.6 96 0.3 NW 9 11 5 6 1015.3 1015.4 0.0
20/08:30pm 7.0 4.8 6.3 95 0.3 WNW 7 11 4 6 1015.2 - 0.0
20/08:00pm 7.1 4.5 6.2 94 0.4 W 9 9 5 5 1015.0 1015.1 0.0
20/07:30pm 7.8 5.3 6.4 91 0.7 WNW 9 9 5 5 1014.7 - 0.0
20/07:00pm 8.5 5.8 7.4 93 0.5 WNW 11 13 6 7 1014.4 1014.5 0.0
20/06:30pm 8.4 6.4 7.2 92 0.6 WSW 7 9 4 5 1014.2 - 0.0
20/06:00pm 9.5 7.3 7.9 90 0.8 WSW 9 11 5 6 1013.7 1013.9 0.0
20/05:30pm 10.1 8.2 7.7 85 1.2 W 7 9 4 5 1013.4 - 0.0
20/05:00pm 12.1 10.1 8.6 79 1.8 WSW 9 9 5 5 1013.0 1013.2 0.0
20/04:30pm 14.0 12.3 8.4 69 2.9 SW 7 11 4 6 1012.9 - 0.0
20/04:00pm 14.0 13.6 8.4 69 2.9 CALM 0 0 0 0 1012.7 1012.8 0.0
20/03:30pm 14.2 13.7 7.9 66 3.2 CALM 0 0 0 0 1012.5 - 0.0
20/03:00pm 14.1 12.4 8.3 68 3.0 SSE 7 13 4 7 1012.4 1012.5 0.0
20/02:30pm 14.6 13.3 7.6 63 3.5 WSW 4 9 2 5 1012.3 - 0.0
20/02:00pm 14.3 12.6 8.5 68 3.0 S 7 11 4 6 1012.2 1012.3 0.0
20/01:30pm 15.0 13.0 8.5 65 3.3 S 9 15 5 8 1011.9 - 0.0
20/01:00pm 15.4 13.1 8.9 65 3.4 SSW 11 15 6 8 1011.9 1012.0 0.0
20/12:30pm 14.4 12.6 8.1 66 3.2 SW 7 13 4 7 1012.2 - 0.0
20/12:00pm 13.8 11.7 8.4 70 2.7 W 9 13 5 7 1012.6 1012.7 0.0
20/11:30am 12.7 10.7 8.6 76 2.1 W 9 11 5 6 1013.2 - 0.0
20/11:00am 11.4 9.9 8.6 83 1.4 NW 6 9 3 5 1013.5 1013.7 0.0
20/10:30am 10.2 8.4 8.0 86 1.1 NNW 7 11 4 6 1013.9 - 0.0
20/10:00am 8.6 6.6 6.9 89 0.8 N 7 11 4 6 1014.2 1014.3 0.0
20/09:30am 9.1 6.4 7.2 88 0.9 N 11 13 6 7 1014.1 - 0.0
20/09:00am 8.4 5.2 6.7 89 0.8 N 13 19 7 10 1013.9 1014.1 0.0
20/08:30am 7.4 4.1 6.3 93 0.5 N 13 17 7 9 1013.7 - 0.0
20/08:00am 6.5 3.5 5.8 95 0.3 N 11 17 6 9 1013.5 1013.7 0.0
20/07:30am 6.0 3.2 5.3 95 0.3 N 9 13 5 7 1013.5 - 0.0
20/07:00am 6.0 3.2 5.3 95 0.3 N 9 15 5 8 1013.5 1013.7 0.0
20/06:30am 5.8 2.2 5.1 95 0.3 N 13 17 7 9 1013.4 - 0.0
20/06:00am 5.7 2.1 5.1 96 0.3 N 13 17 7 9 1013.3 1013.5 0.0
20/05:30am 5.0 1.7 4.3 95 0.3 NNE 11 15 6 8 1013.3 - 0.0
20/05:00am 5.4 1.7 4.5 94 0.4 N 13 17 7 9 1013.4 1013.6 0.0
20/04:30am 5.9 1.9 5.0 94 0.4 N 15 19 8 10 1013.5 - 0.0
20/04:00am 5.3 1.6 4.4 94 0.4 N 13 19 7 10 1013.7 1013.9 0.0
20/03:30am 5.4 1.7 4.4 93 0.4 N 13 17 7 9 1013.9 - 0.0
20/03:00am 5.6 1.9 4.4 92 0.5 N 13 17 7 9 1014.2 1014.3 0.0
20/02:30am 5.8 1.7 4.6 92 0.5 N 15 19 8 10 1014.3 - 0.0
20/02:00am 6.3 2.3 4.8 90 0.7 N 15 19 8 10 1014.5 1014.6 0.0
20/01:30am 6.6 2.2 4.9 89 0.8 N 17 20 9 11 1014.5 - 0.0
20/01:00am 7.3 3.0 5.4 88 0.9 N 17 20 9 11 1014.7 1014.8 0.0
20/12:30am 7.7 3.5 5.7 87 0.9 NNE 17 22 9 12 1014.8 - 0.0
20/12:00am 7.8 3.6 5.6 86 1.0 NNE 17 24 9 13 1014.9 1015.0 0.0

Other Formats:

Comma delimited format used in spreadsheet applications
http://www.bom.gov.au/fwo/IDW60801/IDW60801.95636.axf

JavaScript Object Notation format (JSON) in row-major order
http://www.bom.gov.au/fwo/IDW60801/IDW60801.95636.json